Aviation Digital Data Service (ADDS)

Output produced by METARs form (2320 UTC 01 March 2015)
found at http://www.aviationweather.gov/adds/metars/
 
KJST 012254Z AUTO 24010KT 3SM -SN BR OVC003 01/01 A3014 RMK AO2 CIG 002V006 SLP235 P0003 T00110006
KJST 012234Z AUTO 23010KT 3SM -SN BR OVC003 01/00 A3014 RMK AO2 CIG 002V006 P0002 T00110000
KJST 012219Z AUTO 23009KT 3SM -SN BR OVC002 01/00 A3014 RMK AO2 P0001 T00110000
KJST 012154Z AUTO 21008KT 2SM -SN BR OVC002 01/00 A3014 RMK AO2 SLP237 P0002 T00110000
KJST 012152Z AUTO 21009KT 2SM -SN BR OVC002 01/00 A3015 RMK AO2 P0002
KJST 012054Z AUTO 21009KT 1SM -SN BR OVC002 01/00 A3016 RMK AO2 SLP243 P0003 60007 T00060000 56026
KJST 012035Z AUTO 21008KT 1SM -SN BR OVC002 01/00 A3017 RMK AO2 P0002 T00060000
KJST 011954Z AUTO 21009KT 3/4SM -SN BR OVC002 01/00 A3018 RMK AO2 SLP251 P0002 T00060000
KJST 011929Z AUTO 21010KT 3/4SM -SN BR OVC003 01/M01 A3019 RMK AO2 P0001 T00061006
KJST 011854Z AUTO 21011KT 3/4SM -SN BR OVC002 01/M01 A3021 RMK AO2 SLP260 P0002 T00061006
KJST 011844Z AUTO 21010KT 3/4SM -SN BR OVC002 01/M01 A3021 RMK AO2 P0002 T00061006
KJST 011754Z AUTO 21009KT 3/4SM -SN BR OVC004 00/M01 A3025 RMK AO2 SLP273 P0001 60008 T00001011 10000 21072 58026
KJST 011709Z AUTO 21007KT 1/2SM SN FZFG OVC004 M01/M02 A3028 RMK AO2 P0000 T10061017
KJST 011654Z AUTO 22005KT 1/2SM SN FZFG OVC005 M01/M02 A3029 RMK AO2 SLP289 P0002 T10061017
KJST 011623Z AUTO 21006KT 3/4SM -SN BR OVC007 M01/M02 A3030 RMK AO2 CIG 005V011 P0000 T10061022
KJST 011554Z AUTO 20008KT 1 1/2SM -SN BR BKN006 OVC014 M01/M02 A3031 RMK AO2 CIG 004V012 SLP295 P0001 T10111022
KJST 011540Z AUTO 20009KT 1SM -SN BR BKN006 OVC012 M01/M03 A3031 RMK AO2 CIG 004V009 P0000 T10111028
KJST 011527Z AUTO 21008KT 3/4SM -SN BR BKN008 OVC012 M02/M03 A3031 RMK AO2 P0000 T10171028
KJST 011510Z AUTO 19008KT 1SM -SN BR OVC012 M02/M03 A3032 RMK AO2 P0000 T10221033
KJST 011503Z AUTO 19008KT 3/4SM -SN BR OVC012 M02/M04 A3032 RMK AO2 P0000 T10221039
KJST 011454Z AUTO 19008KT 1SM -SN BR OVC012 M03/M04 A3033 RMK AO2 SLP305 P0002 60004 T10281039 58003
KJST 011443Z AUTO 20007KT 3/4SM -SN BR OVC012 M03/M04 A3033 RMK AO2 P0001 T10331044
KJST 011436Z AUTO 20007KT 3/4SM -SN BR BKN009 OVC015 M03/M04 A3034 RMK AO2 P0001 T10331044
KJST 011409Z AUTO 20006KT 1SM -SN BR BKN010 OVC020 M04/M06 A3034 RMK AO2 P0000 T10441061
KJST 011354Z AUTO 23006KT 3/4SM -SN BR OVC021 M05/M07 A3034 RMK AO2 SLP311 P0001 T10501067
KJST 011351Z AUTO 22006KT 3/4SM -SN BR OVC021 M06/M07 A3034 RMK AO2 P0001
KJST 011338Z AUTO 23006KT 1 1/4SM -SN BR BKN023 OVC032 M06/M08 A3034 RMK AO2 P0001 T10611078
KJST 011323Z AUTO 23005KT 1 1/2SM -SN BR FEW025 BKN032 OVC043 M06/M08 A3034 RMK AO2 P0001 T10611078
KJST 011312Z AUTO 23005KT 2SM -SN BR SCT023 BKN034 OVC047 M06/M07 A3034 RMK AO2 P0000 T10561067
KJST 011254Z AUTO 23005KT 1SM -SN BR SCT006 OVC022 M07/M08 A3034 RMK AO2 SLP313 P0001 T10721083
KJST 011234Z AUTO 24004KT 3/4SM -SN BR BKN006 OVC020 M07/M08 A3034 RMK AO2 P0001 T10721083
KJST 011222Z AUTO 25005KT 1 3/4SM -SN BR BKN006 OVC026 M07/M08 A3034 RMK AO2 P0000 T10721083
KJST 011209Z AUTO 21005KT 1 3/4SM -SN BR FEW006 OVC028 M06/M08 A3035 RMK AO2 P0000 T10611078
KJST 011154Z AUTO 20006KT 2 1/2SM -SN BR OVC028 M07/M08 A3035 RMK AO2 SLP317 P0001 60001 70001 T10671078 11067 21078 58015
KJST 011054Z AUTO 23005KT 1 1/2SM -SN BR OVC022 M07/M09 A3038 RMK AO2 SLP323 P0000 T10721089
KJST 011044Z AUTO 20006KT 1 3/4SM -SN BR OVC028 M07/M09 A3038 RMK AO2 P0000 T10671089
KJST 011034Z AUTO 19006KT 2 1/2SM -SN BR OVC032 M07/M09 A3038 RMK AO2 P0000 T10671089
KJST 011018Z AUTO 17006KT 3SM -SN BR OVC036 M07/M09 A3039 RMK AO2 P0000 T10721094
KJST 011010Z AUTO 16006KT 1 3/4SM -SN BR OVC030 M07/M09 A3039 RMK AO2 P0000 T10721094
KJST 011002Z AUTO 16007KT 2SM -SN OVC028 M07/M10 A3039 RMK AO2 P0000 T10721100
KJST 010954Z AUTO 18006KT 1 3/4SM -SN OVC024 M07/M11 A3040 RMK AO2 SNB30 SLP330 P0000 T10721106
KJST 010937Z AUTO 17007KT 1 3/4SM -SN OVC023 M07/M12 A3040 RMK AO2 SNB30 P0000 T10671117
KJST 010933Z AUTO 18008KT 3SM -SN OVC025 M07/M12 A3040 RMK AO2 SNB30 P0000 T10671122
KJST 010854Z AUTO 19007KT 10SM BKN045 OVC060 M07/M12 A3040 RMK AO2 SNB16E37 SLP331 P0000 60000 T10671117 58016
KJST 010838Z AUTO 17007KT 8SM BKN034 OVC060 M07/M11 A3041 RMK AO2 SNB16E37 P0000 T10721111
KJST 010829Z AUTO 15008KT 2SM -SN OVC034 M07/M12 A3041 RMK AO2 SNB16 P0000 T10721117
KJST 010822Z AUTO 15008KT 1 3/4SM -SN OVC028 M07/M12 A3041 RMK AO2 SNB16 P0000 T10721122
KJST 010754Z AUTO 18009KT 10SM BKN042 OVC070 M07/M14 A3043 RMK AO2 SLP341 T10671144
KJST 010654Z AUTO 16008KT 10SM BKN040 OVC060 M07/M16 A3045 RMK AO2 SLP352 T10721156
KJST 010554Z AUTO 18007KT 10SM OVC095 M07/M16 A3045 RMK AO2 SLP351 T10721161 11072 21083 56020
KJST 010454Z AUTO 17007KT 10SM CLR M08/M17 A3047 RMK AO2 SLP361 T10831167 410331172
KJST 010354Z AUTO 14008KT 10SM CLR M08/M18 A3048 RMK AO2 SLP366 T10831178
KJST 010254Z AUTO 15009KT 10SM CLR M08/M18 A3051 RMK AO2 SLP377 T10781183 56008
KJST 010154Z AUTO 13008KT 10SM CLR M07/M19 A3052 RMK AO2 SLP382 T10721189
KJST 010054Z AUTO 12004KT 10SM CLR M08/M19 A3052 RMK AO2 SLP385 T10781189
KJST 282354Z AUTO 13005KT 10SM CLR M07/M18 A3054 RMK AO2 SLP390 T10721183 11033 21078 55002
KJST 282254Z AUTO 10003KT 10SM CLR M06/M20 A3053 RMK AO2 SLP385 T10561200
KJST 282154Z AUTO 00000KT 10SM CLR M04/M21 A3054 RMK AO2 SLP387 T10391211
KJST 282054Z AUTO 10SM CLR M05/M21 A3054 RMK AO2 SLP390 T10501206 56017
KJST 281954Z AUTO 33003KT 10SM FEW085 M04/M18 A3055 RMK AO2 SLP392 T10391183
KJST 281854Z AUTO 00000KT 10SM CLR M06/M18 A3056 RMK AO2 SLP398 T10611183
KJST 281754Z AUTO 18004KT 10SM CLR M08/M18 A3060 RMK AO2 SLP411 60000 T10781183 11078 21172 58012
KJST 281654Z AUTO 00000KT 10SM CLR M09/M19 A3063 RMK AO2 SNE03 SLP422 P0000 T10891189
KJST 281554Z AUTO 00000KT 10SM -SN CLR M10/M20 A3063 RMK AO2 SNB54 SLP425 P0000 T11001200
KJST 281454Z AUTO 00000KT 10SM CLR M12/M19 A3063 RMK AO2 SLP428 T11171194 53018
KJST 281354Z AUTO 00000KT 10SM CLR M13/M20 A3061 RMK AO2 SLP421 T11331200
KJST 281254Z AUTO 00000KT 10SM CLR M15/M20 A3059 RMK AO2 SLP416 T11501200
KJST 281154Z AUTO 00000KT 10SM CLR M16/M21 A3058 RMK AO2 SLP411 T11611211 11150 21172 51013